Gulf Shores, AL (36542)

11:53 PM CST on February 19, 2017 (GMT -0600)
Shady Lagoon | | Change Station
Active Advisory: Marine Fog Advisory

Elev 43 ft 30.25 °N, 87.78 °W | Updated 1 second ago

Partly Cloudy
Partly Cloudy
60.3 °F
Feels Like 60.3 °F
N
0.0
Wind Variable Wind from North

Today
High -- | Low -- °F
--% Chance of Precip.
Yesterday
High -- | Low -- °F
Precip. -- in
Pressure 30.09 in
Visibility 0.2 miles
Clouds Overcast 100 ft
Dew Point 57 °F
Humidity 91%
Rainfall 0.00 in
Snow Depth Not available.
6:27 AM 5:42 PM
Last Quarter, 37% visible
METAR KJKA 200535Z AUTO 00000KT 1/4SM FG OVC001 13/13 A3009 RMK AO2 T01340134
Pressure 30.09 in
Visibility 0.2 miles
Clouds Overcast 100 ft
Dew Point 57 °F
Humidity 91%
Rainfall 0.00 in
Snow Depth Not available.
6:27 AM 5:42 PM
Last Quarter, 37% visible
METAR KJKA 200535Z AUTO 00000KT 1/4SM FG OVC001 13/13 A3009 RMK AO2 T01340134

Get Your Daily Forecast Email!

Thanks for signing up!

Be on the lookout for a verification email in your inbox.

You'll start receiving the daily forecast at 8 AM.

×

10-Day Weather Forecast

Almanac

Astronomy

Feb. 19, 2017 Rise Set
Actual Time
Civil Twilight
Nautical Twilight
Astronomical Twilight
Moon
Length of Visible Light
Length of Day
Tomorrow will be .
, % of the Moon is Illuminated

Today's Extremes

State Highs State Lows

Community

WunderPhotos

Upload Photos

1,962,540 photos uploaded!

WunderBlog® & News

Nearby

Air Quality

  Air Quality AQ Index Pollutant
Not available.

Snow Depth

Station Depth Elevation

Earthquake Activity

City Distance Mag. Time & Date
Minimum magnitude displayed is 2.5.

Coastal Water Temperatures

Place Temperature

Stations

Nearby Weather Stations

Station Location Temp. Windchill Dew Point Humidity Wind Precip. Elev Updated Type
                   

Watches & Warnings

Marine Fog Advisory
Issued: 9:25 PM CST Feb. 19, 2017 – National Weather Service

... Dense fog advisory in effect until 9 am CST Monday...

The National Weather Service in Mobile has issued a dense fog
advisory, which is in effect until 9 am CST Monday.

* Where... Alabama waters out 20 nm, Mississippi Sound, northern
Mobile Bay, southern Mobile Bay and Perdido Bay.

* Fog impacts... areas of dense fog with visibilities of a mile
or less which will create hazardous boating conditions

Precautionary/preparedness actions...

A dense fog advisory means visibilities will frequently be
reduced to less than one mile. Inexperienced mariners...
especially those operating smaller vessels should avoid
navigating in these conditions.